createdAt,value
2019-02-07T00:00:58.800Z,13.10
2019-02-07T00:03:28.205Z,12.23
2019-02-07T00:05:57.460Z,12.00
2019-02-07T00:08:26.746Z,12.07
2019-02-07T00:10:56.017Z,13.13
2019-02-07T00:13:25.405Z,13.60
2019-02-07T00:15:54.750Z,12.80
2019-02-07T00:18:24.022Z,12.93
2019-02-07T00:20:53.299Z,12.73
2019-02-07T00:23:22.582Z,12.87
2019-02-07T00:25:51.879Z,13.17
2019-02-07T00:28:21.170Z,12.63
2019-02-07T00:30:50.520Z,12.27
2019-02-07T00:33:19.800Z,12.70
2019-02-07T00:35:49.045Z,12.13
2019-02-07T00:38:18.387Z,12.93
2019-02-07T00:40:47.666Z,12.73
2019-02-07T00:43:16.968Z,11.77
2019-02-07T00:45:46.233Z,12.07
2019-02-07T00:48:15.516Z,12.30
2019-02-07T00:50:44.782Z,12.17
2019-02-07T00:53:14.055Z,11.97
2019-02-07T00:55:43.346Z,12.27
2019-02-07T00:58:12.691Z,11.00
2019-02-07T01:00:41.968Z,11.33
2019-02-07T01:03:11.230Z,11.60
2019-02-07T01:05:40.917Z,10.43
2019-02-07T01:08:10.191Z,10.90
2019-02-07T01:10:39.466Z,11.07
2019-02-07T01:13:08.934Z,12.03
2019-02-07T01:15:38.427Z,12.20
2019-02-07T01:18:07.869Z,9.97
2019-02-07T01:20:37.554Z,11.33
2019-02-07T01:23:06.886Z,9.77
2019-02-07T01:25:36.159Z,10.67
2019-02-07T01:28:05.817Z,10.90
2019-02-07T01:30:35.186Z,11.20
2019-02-07T01:33:04.557Z,11.30
2019-02-07T01:35:34.329Z,11.57
2019-02-07T01:38:03.593Z,10.37
2019-02-07T01:40:32.872Z,11.03
2019-02-07T01:43:02.238Z,10.77
2019-02-07T01:45:31.617Z,10.75
2019-02-07T01:48:00.892Z,11.07
2019-02-07T01:50:30.590Z,10.77
2019-02-07T01:52:59.856Z,11.27
2019-02-07T01:55:29.225Z,10.13
2019-02-07T01:57:58.494Z,10.90
2019-02-07T02:00:28.137Z,10.57
2019-02-07T02:02:57.408Z,9.27
2019-02-07T02:05:27.113Z,9.77
2019-02-07T02:07:56.887Z,10.03
2019-02-07T02:10:27.550Z,10.80
2019-02-07T02:12:56.828Z,10.70
2019-02-07T02:15:27.053Z,10.25
2019-02-07T02:17:57.305Z,11.20
2019-02-07T02:20:27.016Z,11.03
2019-02-07T02:22:56.454Z,11.03
2019-02-07T02:25:26.131Z,11.07
2019-02-07T02:27:55.380Z,10.87
2019-02-07T02:30:29.892Z,10.80
2019-02-07T02:32:59.182Z,10.70
2019-02-07T02:35:28.529Z,10.80
2019-02-07T02:37:57.829Z,10.73
2019-02-07T02:40:27.343Z,11.13
2019-02-07T02:42:57.041Z,9.60
2019-02-07T02:45:37.290Z,11.93
2019-02-07T02:47:58.748Z,11.77
2019-02-07T02:50:28.245Z,10.73
2019-02-07T02:52:57.602Z,10.37
2019-02-07T02:55:31.417Z,11.27
2019-02-07T02:58:00.711Z,11.20
2019-02-07T03:00:52.271Z,11.17
2019-02-07T03:03:30.670Z,10.53
2019-02-07T03:06:24.869Z,11.10
2019-02-07T03:09:21.994Z,10.10
2019-02-07T03:12:21.573Z,10.30
2019-02-07T03:15:25.082Z,11.20
2019-02-07T03:18:17.162Z,11.43
2019-02-07T03:21:04.598Z,10.80
2019-02-07T03:23:54.665Z,10.97
2019-02-07T03:29:31.581Z,11.10
2019-02-07T03:32:23.216Z,10.90
2019-02-07T03:35:10.408Z,10.67
2019-02-07T03:37:58.721Z,10.50
2019-02-07T03:41:05.170Z,11.03
2019-02-07T03:44:02.601Z,10.13
2019-02-07T03:46:51.212Z,9.73
2019-02-07T03:49:39.532Z,10.97
2019-02-07T03:52:26.998Z,12.37
2019-02-07T03:55:14.159Z,11.47
2019-02-07T03:58:06.123Z,9.37
2019-02-07T04:00:51.226Z,9.63
2019-02-07T04:03:51.712Z,10.83
2019-02-07T04:06:38.840Z,11.50
2019-02-07T04:09:31.528Z,10.37
2019-02-07T04:12:18.452Z,12.03
2019-02-07T04:15:17.767Z,10.47
2019-02-07T04:18:08.865Z,10.20
2019-02-07T04:21:09.489Z,11.53
2019-02-07T04:23:56.536Z,10.37
2019-02-07T04:26:53.964Z,9.30
2019-02-07T04:29:45.182Z,10.13
2019-02-07T04:32:33.496Z,9.87
2019-02-07T04:35:24.922Z,11.20
2019-02-07T04:38:12.042Z,10.73
2019-02-07T04:41:04.701Z,9.30
2019-02-07T04:43:57.864Z,11.43
2019-02-07T04:46:44.927Z,9.83
2019-02-07T04:49:23.021Z,10.80
2019-02-07T04:52:23.743Z,9.60
2019-02-07T04:55:12.177Z,10.10
2019-02-07T04:58:03.648Z,10.53
2019-02-07T05:01:07.414Z,11.90
2019-02-07T05:03:47.213Z,10.00
2019-02-07T05:06:34.006Z,10.80
2019-02-07T05:09:25.053Z,11.40
2019-02-07T05:12:19.166Z,10.03
2019-02-07T05:15:06.957Z,11.50
2019-02-07T05:17:46.018Z,9.47
2019-02-07T05:20:24.108Z,9.07
2019-02-07T05:23:15.211Z,11.53
2019-02-07T05:26:06.277Z,10.37
2019-02-07T05:29:06.689Z,11.13
2019-02-07T05:31:47.882Z,11.03
2019-02-07T05:34:30.841Z,10.80
2019-02-07T05:37:28.502Z,10.47
2019-02-07T05:40:19.848Z,10.13
2019-02-07T05:43:06.853Z,9.47
2019-02-07T05:45:58.157Z,11.47
2019-02-07T05:49:05.061Z,11.30
2019-02-07T05:52:08.682Z,11.73
2019-02-07T05:55:15.185Z,10.00
2019-02-07T05:57:59.004Z,12.23
2019-02-07T06:00:39.384Z,11.73
2019-02-07T06:03:30.769Z,10.73
2019-02-07T06:06:19.766Z,10.93
2019-02-07T06:09:07.186Z,11.10
2019-02-07T06:11:56.753Z,11.23
2019-02-07T06:14:43.857Z,11.33
2019-02-07T06:17:38.221Z,12.30
2019-02-07T06:20:32.032Z,11.63
2019-02-07T06:23:19.330Z,11.60
2019-02-07T06:26:16.546Z,10.80
2019-02-07T06:29:00.576Z,11.50
2019-02-07T06:31:36.715Z,9.87
2019-02-07T06:34:28.739Z,9.63
2019-02-07T06:37:07.880Z,9.93
2019-02-07T06:40:02.012Z,10.87
2019-02-07T06:42:45.268Z,11.50
2019-02-07T06:45:26.000Z,10.60
2019-02-07T06:48:13.361Z,10.83
2019-02-07T06:51:14.920Z,10.20
2019-02-07T06:54:21.690Z,9.80
2019-02-07T06:57:04.529Z,10.57
2019-02-07T06:59:53.370Z,9.90
2019-02-07T07:02:31.714Z,9.97
2019-02-07T07:05:19.238Z,10.87
2019-02-07T07:08:13.788Z,11.00
2019-02-07T07:10:53.504Z,8.17
2019-02-07T07:13:47.984Z,10.00
2019-02-07T07:16:39.267Z,9.30
2019-02-07T07:19:39.439Z,9.07
2019-02-07T07:22:27.759Z,10.07
2019-02-07T07:25:07.301Z,9.83
2019-02-07T07:27:54.294Z,8.37
2019-02-07T07:30:54.910Z,9.90
2019-02-07T07:33:42.187Z,9.07
2019-02-07T07:36:30.495Z,9.10
2019-02-07T07:39:34.146Z,9.27
2019-02-07T07:42:22.502Z,8.97
2019-02-07T07:45:08.059Z,10.03
2019-02-07T07:47:49.174Z,9.37
2019-02-07T07:50:40.417Z,9.83
2019-02-07T07:53:23.181Z,7.40
2019-02-07T07:56:00.735Z,8.30
2019-02-07T07:58:52.080Z,7.20
2019-02-07T08:01:40.458Z,8.77
2019-02-07T08:04:34.908Z,7.43
2019-02-07T08:07:22.102Z,8.30
2019-02-07T08:10:19.685Z,8.40
2019-02-07T08:13:08.278Z,8.07
2019-02-07T08:15:59.526Z,8.57
2019-02-07T08:18:53.993Z,9.57
2019-02-07T08:21:32.961Z,6.40
2019-02-07T08:24:33.501Z,9.17
2019-02-07T08:27:16.506Z,5.50
2019-02-07T08:30:17.208Z,9.20
2019-02-07T08:33:09.493Z,9.23
2019-02-07T08:36:03.713Z,9.43
2019-02-07T08:38:49.870Z,8.47
2019-02-07T08:41:53.233Z,5.83
2019-02-07T08:44:56.794Z,9.33
2019-02-07T08:47:45.132Z,8.60
2019-02-07T08:50:36.712Z,9.90
2019-02-07T08:53:25.044Z,9.37
2019-02-07T08:56:16.105Z,8.10
2019-02-07T08:59:04.426Z,12.97
2019-02-07T09:01:52.328Z,10.57
2019-02-07T09:04:38.233Z,10.23
2019-02-07T09:07:24.595Z,10.33
2019-02-07T09:10:19.069Z,10.70
2019-02-07T09:13:06.127Z,9.67
2019-02-07T09:15:50.629Z,9.90
2019-02-07T09:18:48.199Z,11.17
2019-02-07T09:21:29.965Z,10.43
2019-02-07T09:24:16.510Z,11.57
2019-02-07T09:27:07.616Z,10.03
2019-02-07T09:30:08.374Z,10.23
2019-02-07T09:32:55.904Z,11.97
2019-02-07T09:35:33.954Z,11.27
2019-02-07T09:38:22.240Z,10.60
2019-02-07T09:41:09.217Z,14.00
2019-02-07T09:43:56.570Z,12.10
2019-02-07T09:46:53.727Z,13.10
2019-02-07T09:49:45.102Z,14.77
2019-02-07T09:52:22.458Z,10.70
2019-02-07T09:55:04.710Z,13.00
2019-02-07T09:57:51.758Z,17.02
2019-02-07T10:00:30.119Z,7.27
2019-02-07T10:03:30.593Z,8.63
2019-02-07T10:06:28.217Z,8.07
2019-02-07T10:09:38.535Z,8.30
2019-02-07T10:12:25.789Z,9.80
2019-02-07T10:15:14.376Z,8.93
2019-02-07T10:17:59.269Z,8.57
2019-02-07T10:20:43.173Z,7.63
2019-02-07T10:23:43.467Z,8.77
2019-02-07T10:26:25.598Z,8.27
2019-02-07T10:29:16.903Z,8.33
2019-02-07T10:31:59.368Z,8.40
2019-02-07T10:34:46.511Z,8.63
2019-02-07T10:37:35.051Z,9.97
2019-02-07T10:40:18.288Z,8.67
2019-02-07T10:43:15.862Z,7.47
2019-02-07T10:46:07.869Z,7.63
2019-02-07T10:49:14.084Z,9.37
2019-02-07T10:52:05.428Z,7.97
2019-02-07T10:54:52.934Z,7.80
2019-02-07T10:57:44.735Z,8.13
2019-02-07T11:00:35.645Z,6.87
2019-02-07T11:03:30.766Z,7.83
2019-02-07T11:06:20.674Z,6.70
2019-02-07T11:09:04.145Z,7.70
2019-02-07T11:11:52.445Z,7.03
2019-02-07T11:14:58.978Z,8.00
2019-02-07T11:17:45.914Z,8.13
2019-02-07T11:20:33.917Z,8.30
2019-02-07T11:23:34.900Z,7.10
2019-02-07T11:26:30.366Z,8.97
2019-02-07T11:29:17.589Z,8.20
2019-02-07T11:32:04.757Z,7.87
2019-02-07T11:34:52.178Z,6.67
2019-02-07T11:37:54.866Z,8.97
2019-02-07T11:40:46.534Z,7.23
2019-02-07T11:43:42.673Z,9.07
2019-02-07T11:46:22.147Z,7.07
2019-02-07T11:49:07.015Z,6.53
2019-02-07T11:52:05.682Z,9.67
2019-02-07T11:54:59.523Z,9.80
2019-02-07T11:57:51.003Z,11.17
2019-02-07T12:00:42.968Z,7.83
2019-02-07T12:03:30.145Z,9.53
2019-02-07T12:06:17.544Z,11.30
2019-02-07T12:09:12.007Z,11.63
2019-02-07T12:12:15.468Z,11.10
2019-02-07T12:14:53.332Z,15.10
2019-02-07T12:17:44.652Z,10.87
2019-02-07T12:20:32.075Z,13.30
2019-02-07T12:23:19.169Z,14.40
2019-02-07T12:26:10.722Z,16.20
2019-02-07T12:28:57.861Z,14.87
2019-02-07T12:31:39.054Z,15.77
2019-02-07T12:34:24.889Z,17.07
2019-02-07T12:37:16.212Z,17.10
2019-02-07T12:40:04.917Z,16.57
2019-02-07T12:42:59.270Z,13.37
2019-02-07T12:46:02.906Z,17.53
2019-02-07T12:48:52.969Z,18.13
2019-02-07T12:51:40.344Z,14.93
2019-02-07T12:54:24.823Z,14.97
2019-02-07T12:57:32.233Z,20.33
2019-02-07T13:00:39.640Z,20.57
2019-02-07T13:03:37.167Z,23.70
2019-02-07T13:06:25.816Z,16.93
2019-02-07T13:09:21.563Z,17.77
2019-02-07T13:12:12.920Z,24.47
2019-02-07T13:14:54.501Z,15.27
2019-02-07T13:17:52.323Z,19.37
2019-02-07T13:20:39.641Z,20.10
2019-02-07T13:23:43.443Z,16.67
2019-02-07T13:26:34.734Z,21.53
2019-02-07T13:29:25.888Z,22.87
2019-02-07T13:32:13.133Z,19.53
2019-02-07T13:35:01.640Z,20.03
2019-02-07T13:37:43.540Z,21.23
2019-02-07T13:40:38.148Z,14.33
2019-02-07T13:43:20.616Z,20.23
2019-02-07T13:46:15.471Z,20.40
2019-02-07T13:48:57.655Z,23.23
2019-02-07T13:52:01.394Z,19.23
2019-02-07T13:54:56.619Z,19.10
2019-02-07T13:57:43.559Z,15.90
2019-02-07T14:00:38.150Z,19.83
2019-02-07T14:03:27.494Z,22.80
2019-02-07T14:06:25.026Z,24.20
2019-02-07T14:09:12.027Z,22.30
2019-02-07T14:12:09.362Z,19.67
2019-02-07T14:14:48.407Z,22.70
2019-02-07T14:17:43.014Z,20.40
2019-02-07T14:20:27.385Z,14.97
2019-02-07T14:23:18.542Z,19.43
2019-02-07T14:26:00.002Z,18.53
2019-02-07T14:28:47.166Z,20.07
2019-02-07T14:31:27.194Z,20.60
2019-02-07T14:34:20.844Z,22.60
2019-02-07T14:37:01.823Z,17.97
2019-02-07T14:39:49.083Z,19.63
2019-02-07T14:42:31.100Z,19.87
2019-02-07T14:45:23.070Z,20.87
2019-02-07T14:47:52.590Z,19.50
2019-02-07T14:50:21.948Z,19.93
2019-02-07T14:52:51.273Z,19.40
2019-02-07T14:55:20.850Z,22.60
2019-02-07T14:57:50.305Z,18.23
2019-02-07T15:00:23.016Z,18.03
2019-02-07T15:02:52.580Z,19.63
2019-02-07T15:05:27.249Z,19.03
2019-02-07T15:07:56.649Z,19.00
2019-02-07T15:10:26.036Z,22.43
2019-02-07T15:12:55.531Z,19.77
2019-02-07T15:15:24.962Z,19.40
2019-02-07T15:17:56.508Z,19.43
2019-02-07T15:20:26.528Z,16.77
2019-02-07T15:22:55.924Z,21.10
2019-02-07T15:25:25.597Z,20.37
2019-02-07T15:27:55.118Z,19.50
2019-02-07T15:30:24.520Z,19.53
2019-02-07T15:32:53.912Z,11.40
2019-02-07T15:35:29.774Z,16.90
2019-02-07T15:37:59.510Z,17.50
2019-02-07T15:40:28.892Z,17.03
2019-02-07T15:42:58.890Z,17.10
2019-02-07T15:45:28.761Z,18.53
2019-02-07T15:47:58.170Z,17.77
2019-02-07T15:50:37.860Z,19.57
2019-02-07T15:53:01.476Z,19.70
2019-02-07T15:55:30.815Z,18.47
2019-02-07T15:58:00.581Z,20.30
2019-02-07T16:00:54.984Z,18.00
2019-02-07T16:03:32.816Z,18.40
2019-02-07T16:06:02.240Z,18.17
2019-02-07T16:08:31.606Z,20.10
2019-02-07T16:11:01.422Z,19.40
2019-02-07T16:13:30.879Z,19.37
2019-02-07T16:16:02.382Z,20.67
2019-02-07T16:18:31.978Z,19.53
2019-02-07T16:21:01.433Z,19.40
2019-02-07T16:23:30.809Z,19.73
2019-02-07T16:26:00.071Z,17.13
2019-02-07T16:28:29.472Z,18.60
2019-02-07T16:30:59.018Z,19.53
2019-02-07T16:33:28.326Z,15.80
2019-02-07T16:35:57.768Z,20.20
2019-02-07T16:38:27.119Z,19.37
2019-02-07T16:40:56.659Z,17.53
2019-02-07T16:43:26.590Z,18.50
2019-02-07T16:45:56.066Z,18.60
2019-02-07T16:48:25.405Z,18.63
2019-02-07T16:51:00.257Z,18.27
2019-02-07T16:53:25.675Z,20.00
2019-02-07T16:55:54.928Z,18.90
2019-02-07T16:58:24.515Z,17.50
2019-02-07T17:00:53.855Z,18.97
2019-02-07T17:03:23.246Z,19.00
2019-02-07T17:05:52.520Z,18.70
2019-02-07T17:08:21.877Z,19.33
2019-02-07T17:10:51.327Z,18.50
2019-02-07T17:13:20.905Z,18.13
2019-02-07T17:15:50.285Z,18.63
2019-02-07T17:18:19.617Z,17.13
2019-02-07T17:20:49.322Z,15.40
2019-02-07T17:23:18.689Z,14.47
2019-02-07T17:25:52.143Z,17.27
2019-02-07T17:28:21.528Z,17.20
2019-02-07T17:30:50.874Z,12.87
2019-02-07T17:33:20.432Z,16.63
2019-02-07T17:35:50.323Z,18.30
2019-02-07T17:38:19.793Z,15.20
2019-02-07T17:40:49.111Z,16.83
2019-02-07T17:43:18.456Z,17.43
2019-02-07T17:45:47.938Z,17.57
2019-02-07T17:48:17.239Z,15.27
2019-02-07T17:50:46.573Z,15.37
2019-02-07T17:53:16.045Z,16.47
2019-02-07T17:55:45.509Z,12.77
2019-02-07T17:58:14.858Z,18.03
2019-02-07T18:00:50.331Z,18.03
2019-02-07T18:03:19.609Z,18.30
2019-02-07T18:05:51.855Z,14.87
2019-02-07T18:08:22.089Z,16.00
2019-02-07T18:10:51.945Z,16.70
2019-02-07T18:13:21.369Z,18.93
2019-02-07T18:15:50.683Z,20.07
2019-02-07T18:18:20.084Z,20.60
2019-02-07T18:20:49.376Z,19.40
2019-02-07T18:23:18.783Z,20.00
2019-02-07T18:25:48.480Z,19.67
2019-02-07T18:28:17.796Z,20.63
2019-02-07T18:30:47.155Z,20.97
2019-02-07T18:33:16.499Z,18.87
2019-02-07T18:35:45.954Z,17.60
2019-02-07T18:38:15.333Z,18.83
2019-02-07T18:40:45.135Z,18.43
2019-02-07T18:43:14.557Z,17.73
2019-02-07T18:45:43.933Z,17.60
2019-02-07T18:48:13.385Z,15.97
2019-02-07T18:50:42.768Z,17.30
2019-02-07T18:53:12.140Z,16.33
2019-02-07T18:55:41.878Z,15.83
2019-02-07T18:58:13.286Z,16.30
2019-02-07T19:00:42.726Z,15.93
2019-02-07T19:03:12.127Z,17.50
2019-02-07T19:05:42.065Z,17.30
2019-02-07T19:08:11.402Z,16.63
2019-02-07T19:10:41.053Z,15.83
2019-02-07T19:13:10.457Z,12.47
2019-02-07T19:15:45.939Z,17.83
2019-02-07T19:18:15.275Z,16.00
2019-02-07T19:20:44.614Z,12.03
2019-02-07T19:23:13.905Z,17.03
2019-02-07T19:25:43.536Z,16.70
2019-02-07T19:28:12.943Z,15.13
2019-02-07T19:30:42.338Z,16.53
2019-02-07T19:33:11.697Z,17.93
2019-02-07T19:35:41.142Z,16.03
2019-02-07T19:38:10.446Z,15.07
2019-02-07T19:40:40.084Z,18.93
2019-02-07T19:43:09.387Z,38.97
2019-02-07T19:45:38.653Z,37.63
2019-02-07T19:48:07.970Z,70.50
2019-02-07T19:50:37.387Z,24.97
2019-02-07T19:53:06.777Z,20.20
2019-02-07T19:55:36.434Z,19.20
2019-02-07T19:58:05.939Z,47.77
2019-02-07T20:00:35.543Z,26.17
2019-02-07T20:03:05.369Z,24.63
2019-02-07T20:05:34.647Z,15.47
2019-02-07T20:08:04.236Z,17.03
2019-02-07T20:10:34.037Z,18.93
2019-02-07T20:13:03.304Z,22.43
2019-02-07T20:15:34.731Z,24.37
2019-02-07T20:18:04.768Z,17.43
2019-02-07T20:20:34.067Z,19.97
2019-02-07T20:23:03.412Z,21.97
2019-02-07T20:25:36.076Z,18.03
2019-02-07T20:28:05.584Z,18.30
2019-02-07T20:30:37.189Z,21.23
2019-02-07T20:33:07.877Z,17.10
2019-02-07T20:35:37.187Z,17.57
2019-02-07T20:38:08.258Z,27.23
2019-02-07T20:40:37.576Z,13.90
2019-02-07T20:43:12.944Z,12.07
2019-02-07T20:45:42.381Z,16.03
2019-02-07T20:48:12.139Z,14.77
2019-02-07T20:50:41.496Z,13.73
2019-02-07T20:53:11.286Z,13.87
2019-02-07T20:55:40.762Z,13.90
2019-02-07T20:58:10.451Z,12.80
2019-02-07T21:00:40.180Z,12.20
2019-02-07T21:03:09.903Z,12.80
2019-02-07T21:05:39.774Z,12.73
2019-02-07T21:08:09.300Z,12.40
2019-02-07T21:10:41.767Z,8.93
2019-02-07T21:13:11.446Z,11.20
2019-02-07T21:15:40.807Z,10.37
2019-02-07T21:18:10.215Z,10.80
2019-02-07T21:20:39.709Z,10.37
2019-02-07T21:23:09.048Z,9.33
2019-02-07T21:25:41.766Z,9.37
2019-02-07T21:28:11.457Z,9.00
2019-02-07T21:30:41.097Z,7.17
2019-02-07T21:33:10.595Z,9.00
2019-02-07T21:35:41.499Z,9.57
2019-02-07T21:38:29.865Z,9.53
2019-02-07T21:40:59.129Z,10.33
2019-02-07T21:43:31.214Z,9.33
2019-02-07T21:46:00.485Z,10.70
2019-02-07T21:48:29.862Z,8.73
2019-02-07T21:50:59.128Z,10.33
2019-02-07T21:53:28.489Z,11.63
2019-02-07T21:55:58.084Z,10.70
2019-02-07T21:58:27.356Z,11.37
2019-02-07T22:00:56.646Z,10.97
2019-02-07T22:03:26.897Z,12.33
2019-02-07T22:05:56.195Z,11.43
2019-02-07T22:08:25.474Z,10.83
2019-02-07T22:10:56.122Z,10.13
2019-02-07T22:13:25.441Z,11.80
2019-02-07T22:15:54.725Z,9.93
2019-02-07T22:18:23.990Z,11.90
2019-02-07T22:20:53.245Z,10.93
2019-02-07T22:23:22.518Z,10.17
2019-02-07T22:25:52.082Z,10.17
2019-02-07T22:28:21.380Z,11.67
2019-02-07T22:30:50.954Z,10.40
2019-02-07T22:33:20.199Z,7.90
2019-02-07T22:35:49.498Z,11.07
2019-02-07T22:38:18.826Z,7.97
2019-02-07T22:40:48.466Z,10.37
2019-02-07T22:43:17.729Z,8.07
2019-02-07T22:45:47.010Z,10.10
2019-02-07T22:48:16.280Z,10.30
2019-02-07T22:50:45.551Z,8.50
2019-02-07T22:53:14.917Z,7.80
2019-02-07T22:55:44.217Z,9.60
2019-02-07T22:58:13.498Z,9.70
2019-02-07T23:01:28.121Z,10.33
2019-02-07T23:03:59.657Z,9.57
2019-02-07T23:06:28.970Z,10.27
2019-02-07T23:08:58.291Z,9.73
2019-02-07T23:11:27.937Z,10.03
2019-02-07T23:13:57.226Z,10.27
2019-02-07T23:16:26.905Z,10.47
2019-02-07T23:18:57.477Z,10.20
2019-02-07T23:21:26.853Z,10.90
2019-02-07T23:23:56.107Z,11.37
2019-02-07T23:26:25.481Z,11.00
2019-02-07T23:28:54.759Z,11.67
2019-02-07T23:31:24.502Z,10.97
2019-02-07T23:33:53.849Z,11.23
2019-02-07T23:36:23.137Z,10.47
2019-02-07T23:38:52.414Z,11.50
2019-02-07T23:41:21.820Z,11.70
2019-02-07T23:43:51.154Z,10.17
2019-02-07T23:46:20.465Z,10.80
2019-02-07T23:48:49.733Z,10.60
2019-02-07T23:51:19.006Z,11.37
2019-02-07T23:53:48.303Z,10.10
2019-02-07T23:56:17.614Z,10.17
2019-02-07T23:58:46.847Z,9.87
